Nowata, Oklahoma
Current Conditions -  °F | °C
As of 2:53 AM on Sunday 21 Dec 2014 (Local Time) from KBVO Reporting Station
Overcast Overcast  
Wind Chill: 36°   Ceiling: 1500
Heat Index: 42°   Visibility: 10mi
Dew Point: 37°   Wind: 10mph
Humidity: 82%   Direction: 200°SSW
Pressure: 30.14"   Gusts: NA
Location:  36.7°N, 95.64°W
Report Text: KBVO 210853Z AUTO 20009KT 10SM OVC015 06/03 A3014 RMK AO2 SLP203 T00560028 56005
Loading
Personal Weather Stations






























Interactive Weather Map New forecast layout! Learn more

10-Day Weather Forecast

Advertisements
Track Severe Weather on mobile